createdAt,value
2022-11-29T00:00:59.427Z,101683.16
2022-11-29T00:03:59.824Z,101671.59
2022-11-29T00:06:48.340Z,101687.03
2022-11-29T00:09:33.718Z,101676.44
2022-11-29T00:12:23.497Z,101700.78
2022-11-29T00:15:02.806Z,101701.28
2022-11-29T00:17:48.042Z,101689.50
2022-11-29T00:20:25.422Z,101710.69
2022-11-29T00:23:43.030Z,101708.97
2022-11-29T00:26:20.119Z,101709.38
2022-11-29T00:28:50.225Z,101690.75
2022-11-29T00:34:13.991Z,101719.19
2022-11-29T00:36:58.940Z,101713.78
2022-11-29T00:39:31.722Z,101719.59
2022-11-29T00:42:11.050Z,101698.25
2022-11-29T00:44:48.483Z,101695.97
2022-11-29T00:47:25.096Z,101718.00
2022-11-29T00:50:03.600Z,101727.19
2022-11-29T00:52:34.518Z,101730.81
2022-11-29T00:55:11.515Z,101722.13
2022-11-29T01:01:06.441Z,101732.25
2022-11-29T01:03:51.162Z,101734.66
2022-11-29T01:06:25.282Z,101741.41
2022-11-29T01:08:56.479Z,101733.94
2022-11-29T01:11:26.389Z,101749.34
2022-11-29T01:14:01.289Z,101737.66
2022-11-29T01:16:59.931Z,101729.47
2022-11-29T01:19:33.708Z,101746.97
2022-11-29T01:22:08.276Z,101749.84
2022-11-29T01:24:48.961Z,101742.34
2022-11-29T01:27:24.357Z,101747.31
2022-11-29T01:30:04.055Z,101736.47
2022-11-29T01:32:37.769Z,101753.22
2022-11-29T01:35:12.428Z,101758.03
2022-11-29T01:38:01.341Z,101752.59
2022-11-29T01:43:30.707Z,101765.88
2022-11-29T01:46:14.331Z,101760.81
2022-11-29T01:48:58.599Z,101768.19
2022-11-29T01:51:41.157Z,101770.84
2022-11-29T01:54:17.617Z,101785.28
2022-11-29T01:56:54.398Z,101785.06
2022-11-29T01:59:32.662Z,101778.75
2022-11-29T02:02:27.481Z,101780.22
2022-11-29T02:05:05.512Z,101800.97
2022-11-29T02:07:35.888Z,101801.19
2022-11-29T02:10:06.590Z,101796.63
2022-11-29T02:12:43.453Z,101800.34
2022-11-29T02:15:21.377Z,101812.28
2022-11-29T02:18:04.633Z,101810.72
2022-11-29T02:21:16.979Z,101802.78
2022-11-29T02:24:25.044Z,101789.63
2022-11-29T02:27:41.587Z,101796.63
2022-11-29T02:30:30.599Z,101780.66
2022-11-29T02:33:34.837Z,101804.78
2022-11-29T02:36:44.345Z,101811.03
2022-11-29T02:39:45.169Z,101800.41
2022-11-29T02:42:56.114Z,101809.09
2022-11-29T02:45:50.806Z,101818.53
2022-11-29T02:48:32.242Z,101819.25
2022-11-29T02:51:05.713Z,101803.09
2022-11-29T02:53:41.009Z,101799.22
2022-11-29T02:56:15.382Z,101821.81
2022-11-29T02:58:56.965Z,101824.34
2022-11-29T03:01:37.148Z,101827.22
2022-11-29T03:04:13.062Z,101808.66
2022-11-29T03:06:52.308Z,101830.50
2022-11-29T03:09:33.054Z,101815.19
2022-11-29T03:15:24.716Z,101821.22
2022-11-29T03:18:04.176Z,101827.22
2022-11-29T03:20:43.849Z,101821.94
2022-11-29T03:23:26.566Z,101817.25
2022-11-29T03:26:11.829Z,101819.69
2022-11-29T03:28:47.212Z,101821.47
2022-11-29T03:31:23.550Z,101806.75
2022-11-29T03:33:57.093Z,101831.34
2022-11-29T03:36:32.743Z,101835.81
2022-11-29T03:39:11.881Z,101825.09
2022-11-29T03:41:49.075Z,101822.78
2022-11-29T03:44:24.579Z,101808.19
2022-11-29T03:46:58.528Z,101829.53
2022-11-29T03:49:33.183Z,101833.06
2022-11-29T03:52:07.193Z,101827.22
2022-11-29T03:54:42.980Z,101804.31
2022-11-29T03:57:19.831Z,101803.84
2022-11-29T04:00:02.823Z,101841.59
2022-11-29T04:02:57.252Z,101831.56
2022-11-29T04:05:52.483Z,101833.75
2022-11-29T04:08:54.248Z,101849.03
2022-11-29T04:12:04.292Z,101845.50
2022-11-29T04:14:52.026Z,101856.56
2022-11-29T04:18:12.011Z,101865.59
2022-11-29T04:21:42.058Z,101857.47
2022-11-29T04:24:55.587Z,101875.81
2022-11-29T04:27:43.484Z,101862.78
2022-11-29T04:30:22.309Z,101870.25
2022-11-29T04:33:30.466Z,101877.38
2022-11-29T04:36:33.911Z,101881.72
2022-11-29T04:39:15.705Z,101894.84
2022-11-29T04:42:31.635Z,101874.84
2022-11-29T04:45:12.752Z,101888.63
2022-11-29T04:48:00.457Z,101892.97
2022-11-29T04:50:48.772Z,101891.28
2022-11-29T04:53:34.966Z,101892.97
2022-11-29T04:56:13.452Z,101872.06
2022-11-29T04:58:44.290Z,101906.97
2022-11-29T05:02:00.652Z,101905.06
2022-11-29T05:04:41.935Z,101902.53
2022-11-29T05:07:18.009Z,101912.06
2022-11-29T05:09:54.640Z,101893.81
2022-11-29T05:12:35.473Z,101912.94
2022-11-29T05:15:33.117Z,101909.66
2022-11-29T05:18:14.125Z,101905.19
2022-11-29T05:20:51.488Z,101909.66
2022-11-29T05:23:29.886Z,101912.81
2022-11-29T05:26:05.754Z,101909.22
2022-11-29T05:28:41.091Z,101908.97
2022-11-29T05:31:58.315Z,101915.97
2022-11-29T05:34:41.943Z,101892.13
2022-11-29T05:37:19.968Z,101929.81
2022-11-29T05:40:14.283Z,101914.97
2022-11-29T05:42:53.538Z,101925.56
2022-11-29T05:45:26.547Z,101926.66
2022-11-29T05:48:08.640Z,101930.88
2022-11-29T05:50:47.510Z,101932.56
2022-11-29T05:53:35.561Z,101911.78
2022-11-29T05:56:10.803Z,101944.88
2022-11-29T05:58:53.889Z,101962.47
2022-11-29T06:01:31.222Z,101953.56
2022-11-29T06:04:10.304Z,101957.16
2022-11-29T06:06:47.813Z,101974.03
2022-11-29T06:09:37.163Z,101966.31
2022-11-29T06:12:16.928Z,101965.81
2022-11-29T06:15:14.583Z,101964.00
2022-11-29T06:18:01.599Z,101967.38
2022-11-29T06:21:03.004Z,101959.31
2022-11-29T06:24:00.582Z,101966.44
2022-11-29T06:26:51.414Z,101947.94
2022-11-29T06:29:39.771Z,101965.09
2022-11-29T06:32:17.672Z,101961.69
2022-11-29T06:34:51.251Z,101975.06
2022-11-29T06:37:26.645Z,101980.38
2022-11-29T06:39:57.853Z,101954.13
2022-11-29T06:42:32.019Z,101957.97
2022-11-29T06:45:05.293Z,101973.63
2022-11-29T06:47:36.991Z,101974.44
2022-11-29T06:50:20.139Z,101989.88
2022-11-29T06:52:59.059Z,102010.59
2022-11-29T06:55:35.074Z,101990.94
2022-11-29T06:58:17.559Z,101987.63
2022-11-29T07:00:53.139Z,101993.88
2022-11-29T07:04:00.224Z,101993.22
2022-11-29T07:06:42.168Z,102015.22
2022-11-29T07:09:17.350Z,102014.91
2022-11-29T07:12:03.123Z,102010.84
2022-11-29T07:14:42.626Z,102013.63
2022-11-29T07:17:18.941Z,102004.28
2022-11-29T07:19:52.868Z,102016.81
2022-11-29T07:22:47.171Z,102012.38
2022-11-29T07:25:31.578Z,102018.72
2022-11-29T07:28:08.144Z,101976.88
2022-11-29T07:30:50.050Z,102014.47
2022-11-29T07:33:24.199Z,102003.66
2022-11-29T07:36:09.777Z,102018.47
2022-11-29T07:38:50.464Z,102019.75
2022-11-29T07:41:22.681Z,102000.16
2022-11-29T07:43:59.420Z,102010.22
2022-11-29T07:46:34.949Z,102013.59
2022-11-29T07:52:01.319Z,102037.75
2022-11-29T07:54:33.426Z,102029.50
2022-11-29T07:57:21.729Z,102031.19
2022-11-29T08:00:16.778Z,102043.16
2022-11-29T08:03:23.283Z,102045.13
2022-11-29T08:09:15.104Z,102040.44
2022-11-29T08:11:48.384Z,102050.00
2022-11-29T08:14:55.911Z,102049.25
2022-11-29T08:21:06.975Z,102043.66
2022-11-29T08:23:52.409Z,102040.34
2022-11-29T08:26:32.341Z,102062.28
2022-11-29T08:29:08.156Z,102066.72
2022-11-29T08:31:40.782Z,102064.41
2022-11-29T08:34:39.387Z,102059.75
2022-11-29T08:37:19.248Z,102045.34
2022-11-29T08:40:00.423Z,102083.47
2022-11-29T08:42:49.160Z,102089.00
2022-11-29T08:45:55.492Z,102083.22
2022-11-29T08:51:50.489Z,102050.88
2022-11-29T08:54:43.633Z,102083.63
2022-11-29T08:57:41.590Z,102087.56
2022-11-29T09:00:23.806Z,102088.00
2022-11-29T09:02:54.785Z,102099.00
2022-11-29T09:05:37.486Z,102091.78
2022-11-29T09:08:14.795Z,102103.34
2022-11-29T09:10:46.630Z,102057.03
2022-11-29T09:13:25.686Z,102090.69
2022-11-29T09:16:10.947Z,102075.75
2022-11-29T09:19:43.430Z,102084.56
2022-11-29T09:30:45.479Z,102088.84
2022-11-29T09:33:20.575Z,102088.81
2022-11-29T09:39:00.015Z,102107.91
2022-11-29T09:42:16.759Z,102113.81
2022-11-29T09:44:57.074Z,102118.91
2022-11-29T09:52:56.226Z,102117.72
2022-11-29T09:56:02.758Z,102120.28
2022-11-29T09:58:43.678Z,102128.28
2022-11-29T10:01:19.067Z,102116.97
2022-11-29T10:03:55.839Z,102129.69
2022-11-29T10:06:27.583Z,102124.00
2022-11-29T10:09:12.274Z,102130.22
2022-11-29T10:11:44.929Z,102129.47
2022-11-29T10:14:26.326Z,102139.19
2022-11-29T10:17:00.233Z,102133.97
2022-11-29T10:19:37.780Z,102141.63
2022-11-29T10:22:36.537Z,102153.47
2022-11-29T10:25:22.144Z,102149.94
2022-11-29T10:27:58.572Z,102156.50
2022-11-29T10:30:35.169Z,102153.63
2022-11-29T10:33:13.926Z,102154.94
2022-11-29T10:35:54.789Z,102147.44
2022-11-29T10:38:49.174Z,102149.97
2022-11-29T10:41:24.255Z,102156.78
2022-11-29T10:44:12.285Z,102152.66
2022-11-29T10:47:13.077Z,102151.91
2022-11-29T10:49:45.117Z,102147.41
2022-11-29T10:52:22.831Z,102147.53
2022-11-29T10:55:09.469Z,102154.56
2022-11-29T10:58:31.679Z,102150.66
2022-11-29T11:21:05.596Z,102115.31
2022-11-29T11:26:27.284Z,102111.16
2022-11-29T11:32:34.515Z,102128.44
2022-11-29T11:35:21.028Z,102126.50
2022-11-29T11:38:22.167Z,102136.91
2022-11-29T11:41:09.633Z,102125.09
2022-11-29T11:44:45.703Z,102125.53
2022-11-29T11:47:30.664Z,102111.47
2022-11-29T11:50:13.082Z,102104.13
2022-11-29T11:56:33.285Z,102109.78
2022-11-29T11:59:41.932Z,102123.28
2022-11-29T12:02:51.358Z,102116.00
2022-11-29T12:05:25.235Z,102113.09
2022-11-29T12:08:08.375Z,102107.34
2022-11-29T12:10:42.184Z,102094.66
2022-11-29T12:13:26.420Z,102102.47
2022-11-29T12:16:00.250Z,102092.34
2022-11-29T12:18:39.403Z,102087.56
2022-11-29T12:21:16.845Z,102077.47
2022-11-29T12:23:53.052Z,102093.94
2022-11-29T12:29:35.299Z,102088.09
2022-11-29T12:32:24.571Z,102070.72
2022-11-29T12:43:16.965Z,102082.31
2022-11-29T12:50:58.331Z,102071.09
2022-11-29T12:54:36.120Z,102050.06
2022-11-29T13:00:37.850Z,102087.22
2022-11-29T13:03:37.354Z,102075.03
2022-11-29T13:07:07.411Z,102055.75
2022-11-29T13:10:18.238Z,102069.84
2022-11-29T13:13:30.386Z,102084.25
2022-11-29T13:19:55.296Z,102065.72
2022-11-29T13:22:34.481Z,102075.84
2022-11-29T13:29:06.988Z,102075.28
2022-11-29T13:43:11.087Z,102063.63
2022-11-29T13:46:54.062Z,102056.44
2022-11-29T13:58:17.770Z,102061.47
2022-11-29T14:02:49.902Z,102045.47
2022-11-29T14:06:15.756Z,102043.34
2022-11-29T14:09:49.194Z,102089.59
2022-11-29T14:16:18.160Z,102069.63
2022-11-29T14:19:26.650Z,102079.19
2022-11-29T14:22:55.974Z,102065.38
2022-11-29T14:25:51.802Z,102066.88
2022-11-29T14:28:43.164Z,102071.38
2022-11-29T14:31:40.626Z,102061.97
2022-11-29T14:34:38.269Z,102052.81
2022-11-29T14:37:45.765Z,102044.25
2022-11-29T14:40:51.188Z,102059.97
2022-11-29T14:43:55.670Z,102056.88
2022-11-29T14:46:35.751Z,102065.88
2022-11-29T14:49:12.275Z,102062.22
2022-11-29T14:52:31.364Z,102067.56
2022-11-29T15:06:00.026Z,102062.59
2022-11-29T15:12:09.887Z,102064.69
2022-11-29T15:14:55.857Z,102058.50
2022-11-29T15:17:42.577Z,102063.81
2022-11-29T15:23:50.408Z,102048.78
2022-11-29T15:26:36.066Z,102047.94
2022-11-29T15:29:39.587Z,102059.03
2022-11-29T15:32:11.324Z,102044.00
2022-11-29T15:35:06.720Z,102070.25
2022-11-29T15:37:52.066Z,102067.81
2022-11-29T15:40:43.644Z,102067.50
2022-11-29T15:52:43.815Z,102045.66
2022-11-29T15:55:13.504Z,102065.06
2022-11-29T15:58:16.716Z,102068.00
2022-11-29T16:00:51.510Z,102063.31
2022-11-29T16:03:27.001Z,102059.13
2022-11-29T16:06:11.178Z,102069.78
2022-11-29T16:09:01.266Z,102066.38
2022-11-29T16:11:37.523Z,102070.31
2022-11-29T16:17:39.458Z,102067.75
2022-11-29T16:20:51.195Z,102070.53
2022-11-29T16:23:25.496Z,102064.50
2022-11-29T16:26:21.758Z,102074.47
2022-11-29T16:29:02.616Z,102072.13
2022-11-29T16:31:50.886Z,102057.19
2022-11-29T16:34:47.308Z,102049.00
2022-11-29T16:37:24.518Z,102067.53
2022-11-29T16:39:59.309Z,102052.81
2022-11-29T16:42:44.969Z,102077.97
2022-11-29T16:45:33.410Z,102078.38
2022-11-29T16:48:45.755Z,102070.75
2022-11-29T16:55:09.148Z,102084.69
2022-11-29T16:58:04.634Z,102071.31
2022-11-29T17:04:31.600Z,102080.25
2022-11-29T17:07:50.980Z,102078.69
2022-11-29T17:11:02.895Z,102076.63
2022-11-29T17:13:43.486Z,102076.75
2022-11-29T17:16:40.350Z,102074.94
2022-11-29T17:19:22.121Z,102082.66
2022-11-29T17:21:53.825Z,102067.69
2022-11-29T17:24:35.396Z,102085.47
2022-11-29T17:27:34.230Z,102091.63
2022-11-29T17:33:23.467Z,102099.13
2022-11-29T17:35:52.873Z,102089.00
2022-11-29T17:38:27.817Z,102093.34
